createdAt,value
2023-03-06T00:00:46.839Z,99532.69
2023-03-06T00:03:14.304Z,99534.69
2023-03-06T00:05:44.771Z,99537.53
2023-03-06T00:08:12.403Z,99538.69
2023-03-06T00:10:40.588Z,99542.91
2023-03-06T00:13:12.510Z,99541.91
2023-03-06T00:15:40.265Z,99537.91
2023-03-06T00:18:08.598Z,99540.69
2023-03-06T00:20:36.690Z,99539.41
2023-03-06T00:23:04.190Z,99538.09
2023-03-06T00:25:31.895Z,99541.91
2023-03-06T00:27:59.215Z,99538.88
2023-03-06T00:30:26.638Z,99549.94
2023-03-06T00:32:54.584Z,99546.97
2023-03-06T00:35:22.150Z,99542.28
2023-03-06T00:37:49.668Z,99541.25
2023-03-06T00:40:20.782Z,99548.25
2023-03-06T00:42:48.195Z,99548.19
2023-03-06T00:45:15.955Z,99550.44
2023-03-06T00:47:43.701Z,99551.81
2023-03-06T00:50:11.429Z,99549.81
2023-03-06T00:52:39.250Z,99550.13
2023-03-06T00:55:07.082Z,99550.38
2023-03-06T00:57:34.472Z,99552.00
2023-03-06T01:00:02.587Z,99547.41
2023-03-06T01:02:30.142Z,99549.75
2023-03-06T01:04:57.695Z,99551.69
2023-03-06T01:07:25.207Z,99551.97
2023-03-06T01:09:52.857Z,99549.28
2023-03-06T01:12:23.152Z,99544.28
2023-03-06T01:14:51.249Z,99544.41
2023-03-06T01:17:18.769Z,99545.84
2023-03-06T01:19:46.197Z,99550.91
2023-03-06T01:22:13.574Z,99551.19
2023-03-06T01:24:40.928Z,99558.78
2023-03-06T01:27:08.285Z,99555.72
2023-03-06T01:29:39.345Z,99566.94
2023-03-06T01:32:07.468Z,99565.16
2023-03-06T01:34:35.174Z,99565.63
2023-03-06T01:37:02.641Z,99557.88
2023-03-06T01:39:30.149Z,99559.53
2023-03-06T01:41:57.656Z,99553.53
2023-03-06T01:44:25.142Z,99557.00
2023-03-06T01:46:52.669Z,99559.38
2023-03-06T01:49:28.479Z,99550.94
2023-03-06T01:52:09.022Z,99564.13
2023-03-06T01:54:41.918Z,99551.38
2023-03-06T01:57:38.496Z,99560.50
2023-03-06T02:00:09.633Z,99561.47
2023-03-06T02:02:43.578Z,99560.97
2023-03-06T02:05:11.207Z,99577.00
2023-03-06T02:07:41.352Z,99570.28
2023-03-06T02:10:10.566Z,99571.25
2023-03-06T02:12:42.356Z,99571.81
2023-03-06T02:15:12.468Z,99574.03
2023-03-06T02:17:43.095Z,99572.13
2023-03-06T02:20:19.200Z,99572.31
2023-03-06T02:22:58.199Z,99574.81
2023-03-06T02:25:47.053Z,99584.63
2023-03-06T02:28:20.818Z,99585.00
2023-03-06T02:30:50.202Z,99587.06
2023-03-06T02:33:20.361Z,99591.19
2023-03-06T02:35:53.730Z,99588.84
2023-03-06T02:38:24.941Z,99591.28
2023-03-06T02:40:53.442Z,99589.94
2023-03-06T02:43:31.605Z,99589.25
2023-03-06T02:45:59.163Z,99596.66
2023-03-06T02:48:26.694Z,99592.59
2023-03-06T02:50:54.228Z,99592.03
2023-03-06T02:53:21.645Z,99597.47
2023-03-06T02:55:50.216Z,99595.94
2023-03-06T02:58:17.925Z,99596.25
2023-03-06T03:00:45.922Z,99596.91
2023-03-06T03:03:14.772Z,99595.94
2023-03-06T03:05:42.250Z,99589.59
2023-03-06T03:08:09.814Z,99601.41
2023-03-06T03:10:37.284Z,99591.09
2023-03-06T03:13:04.665Z,99594.75
2023-03-06T03:15:31.993Z,99598.69
2023-03-06T03:17:59.307Z,99597.19
2023-03-06T03:20:26.772Z,99604.66
2023-03-06T03:22:55.464Z,99600.88
2023-03-06T03:25:25.463Z,99610.47
2023-03-06T03:27:53.137Z,99605.00
2023-03-06T03:30:20.823Z,99611.00
2023-03-06T03:32:48.146Z,99599.31
2023-03-06T03:35:15.596Z,99610.59
2023-03-06T03:37:42.997Z,99609.56
2023-03-06T03:40:11.071Z,99618.88
2023-03-06T03:42:39.033Z,99610.84
2023-03-06T03:45:06.952Z,99612.97
2023-03-06T03:47:34.706Z,99612.63
2023-03-06T03:50:02.070Z,99619.78
2023-03-06T03:52:29.530Z,99622.72
2023-03-06T03:54:57.481Z,99631.81
2023-03-06T03:57:25.377Z,99623.41
2023-03-06T03:59:52.835Z,99630.94
2023-03-06T04:02:20.609Z,99625.47
2023-03-06T04:04:48.533Z,99629.94
2023-03-06T04:07:16.929Z,99630.88
2023-03-06T04:09:44.441Z,99632.09
2023-03-06T04:12:11.908Z,99635.38
2023-03-06T04:14:39.232Z,99630.53
2023-03-06T04:17:06.740Z,99626.69
2023-03-06T04:19:34.191Z,99624.63
2023-03-06T04:22:01.617Z,99632.56
2023-03-06T04:24:29.295Z,99636.88
2023-03-06T04:26:56.650Z,99634.81
2023-03-06T04:29:23.996Z,99629.41
2023-03-06T04:31:51.609Z,99644.88
2023-03-06T04:34:19.090Z,99645.91
2023-03-06T04:36:46.460Z,99643.31
2023-03-06T04:39:14.387Z,99645.22
2023-03-06T04:41:42.454Z,99646.16
2023-03-06T04:44:10.356Z,99646.97
2023-03-06T04:46:37.784Z,99654.25
2023-03-06T04:49:05.825Z,99653.84
2023-03-06T04:51:33.403Z,99656.63
2023-03-06T04:54:00.832Z,99653.56
2023-03-06T04:56:28.998Z,99652.97
2023-03-06T04:58:59.272Z,99659.22
2023-03-06T05:01:27.307Z,99662.94
2023-03-06T05:03:55.371Z,99660.44
2023-03-06T05:06:23.223Z,99652.28
2023-03-06T05:08:51.245Z,99653.28
2023-03-06T05:11:19.403Z,99660.81
2023-03-06T05:13:47.339Z,99659.84
2023-03-06T05:16:15.467Z,99660.97
2023-03-06T05:18:43.554Z,99661.16
2023-03-06T05:21:11.706Z,99656.75
2023-03-06T05:23:39.512Z,99665.31
2023-03-06T05:26:13.041Z,99666.69
2023-03-06T05:28:40.954Z,99667.25
2023-03-06T05:31:09.210Z,99673.97
2023-03-06T05:33:37.064Z,99672.91
2023-03-06T05:36:04.994Z,99684.78
2023-03-06T05:38:32.482Z,99680.59
2023-03-06T05:41:00.282Z,99684.63
2023-03-06T05:43:28.896Z,99689.75
2023-03-06T05:46:07.510Z,99697.91
2023-03-06T05:48:35.710Z,99695.81
2023-03-06T05:51:05.822Z,99702.78
2023-03-06T05:53:33.681Z,99711.13
2023-03-06T05:56:04.220Z,99720.81
2023-03-06T05:58:33.575Z,99722.81
2023-03-06T06:01:07.833Z,99725.31
2023-03-06T06:03:35.731Z,99737.31
2023-03-06T06:06:08.657Z,99728.09
2023-03-06T06:08:36.768Z,99741.59
2023-03-06T06:11:05.629Z,99732.53
2023-03-06T06:13:33.564Z,99731.72
2023-03-06T06:16:07.309Z,99737.34
2023-03-06T06:18:36.099Z,99747.19
2023-03-06T06:21:09.210Z,99744.28
2023-03-06T06:23:36.944Z,99744.66
2023-03-06T06:26:07.266Z,99748.88
2023-03-06T06:28:35.661Z,99748.22
2023-03-06T06:31:11.724Z,99747.91
2023-03-06T06:33:40.557Z,99751.06
2023-03-06T06:36:16.452Z,99753.78
2023-03-06T06:38:43.927Z,99748.06
2023-03-06T06:41:46.305Z,99763.78
2023-03-06T06:44:02.676Z,99765.91
2023-03-06T06:47:18.275Z,99770.72
2023-03-06T06:49:18.279Z,99764.94
2023-03-06T06:51:45.658Z,99774.31
2023-03-06T06:54:13.208Z,99778.72
2023-03-06T06:56:40.667Z,99772.03
2023-03-06T06:59:16.741Z,99782.03
2023-03-06T07:01:45.380Z,99777.38
2023-03-06T07:04:13.833Z,99779.50
2023-03-06T07:06:42.891Z,99779.91
2023-03-06T07:09:11.081Z,99782.34
2023-03-06T07:11:39.426Z,99787.19
2023-03-06T07:14:07.124Z,99784.03
2023-03-06T07:16:34.566Z,99791.28
2023-03-06T07:19:03.053Z,99778.91
2023-03-06T07:21:30.487Z,99790.75
2023-03-06T07:23:59.035Z,99782.31
2023-03-06T07:26:28.082Z,99790.56
2023-03-06T07:28:56.675Z,99790.25
2023-03-06T07:31:26.966Z,99799.75
2023-03-06T07:33:54.985Z,99795.41
2023-03-06T07:36:24.039Z,99799.25
2023-03-06T07:38:51.457Z,99794.41
2023-03-06T07:41:19.802Z,99800.91
2023-03-06T07:43:50.302Z,99796.56
2023-03-06T07:46:18.185Z,99797.44
2023-03-06T07:48:45.652Z,99805.59
2023-03-06T07:51:21.812Z,99799.81
2023-03-06T07:53:49.741Z,99809.63
2023-03-06T07:56:17.621Z,99804.66
2023-03-06T07:58:47.329Z,99803.63
2023-03-06T08:01:17.083Z,99814.19
2023-03-06T08:03:44.440Z,99813.66
2023-03-06T08:06:14.760Z,99809.78
2023-03-06T08:08:43.850Z,99808.88
2023-03-06T08:11:14.380Z,99812.94
2023-03-06T08:13:42.138Z,99812.09
2023-03-06T08:16:10.853Z,99816.41
2023-03-06T08:18:38.478Z,99817.03
2023-03-06T08:21:11.472Z,99819.00
2023-03-06T08:23:40.192Z,99823.06
2023-03-06T08:26:13.506Z,99815.47
2023-03-06T08:28:41.499Z,99817.31
2023-03-06T08:31:20.930Z,99817.66
2023-03-06T08:33:48.284Z,99813.84
2023-03-06T08:36:15.646Z,99805.19
2023-03-06T08:38:43.322Z,99808.09
2023-03-06T08:41:10.911Z,99813.81
2023-03-06T08:43:38.423Z,99804.78
2023-03-06T08:46:05.949Z,99812.16
2023-03-06T08:48:33.468Z,99810.34
2023-03-06T08:51:02.725Z,99810.56
2023-03-06T08:53:42.071Z,99811.34
2023-03-06T08:56:31.166Z,99812.25
2023-03-06T08:59:00.256Z,99812.56
2023-03-06T09:01:30.604Z,99810.78
2023-03-06T09:04:00.644Z,99807.09
2023-03-06T09:06:31.492Z,99810.00
2023-03-06T09:09:00.655Z,99804.97
2023-03-06T09:11:28.610Z,99809.97
2023-03-06T09:13:56.471Z,99806.97
2023-03-06T09:16:24.622Z,99806.22
2023-03-06T09:18:52.296Z,99794.31
2023-03-06T09:21:24.595Z,99799.97
2023-03-06T09:23:52.213Z,99795.88
2023-03-06T09:26:20.102Z,99793.72
2023-03-06T09:28:47.727Z,99796.53
2023-03-06T09:31:18.313Z,99794.31
2023-03-06T09:33:46.378Z,99805.09
2023-03-06T09:36:19.956Z,99797.69
2023-03-06T09:38:48.704Z,99803.47
2023-03-06T09:41:31.790Z,99795.06
2023-03-06T09:44:14.979Z,99799.78
2023-03-06T09:46:47.095Z,99797.00
2023-03-06T09:49:46.624Z,99796.56
2023-03-06T09:52:30.005Z,99802.31
2023-03-06T09:55:18.442Z,99796.34
2023-03-06T09:57:59.034Z,99801.97
2023-03-06T10:00:43.671Z,99797.16
2023-03-06T10:03:25.694Z,99795.69
2023-03-06T10:06:09.664Z,99805.38
2023-03-06T10:08:48.760Z,99805.16
2023-03-06T10:11:23.665Z,99800.22
2023-03-06T10:13:59.007Z,99797.94
2023-03-06T10:16:29.274Z,99790.09
2023-03-06T10:19:01.992Z,99792.88
2023-03-06T10:21:39.950Z,99792.81
2023-03-06T10:24:32.455Z,99783.63
2023-03-06T10:27:40.505Z,99783.28
2023-03-06T10:30:24.118Z,99783.78
2023-03-06T10:32:59.053Z,99776.06
2023-03-06T10:35:46.186Z,99778.31
2023-03-06T10:38:32.868Z,99775.03
2023-03-06T10:41:06.668Z,99770.00
2023-03-06T10:43:42.528Z,99767.41
2023-03-06T10:46:12.829Z,99769.50
2023-03-06T10:48:42.701Z,99760.00
2023-03-06T10:51:21.164Z,99755.81
2023-03-06T10:54:00.661Z,99745.13
2023-03-06T10:56:32.995Z,99749.88
2023-03-06T10:59:13.126Z,99745.31
2023-03-06T11:01:42.807Z,99739.78
2023-03-06T11:04:35.410Z,99740.25
2023-03-06T11:07:18.160Z,99724.63
2023-03-06T11:09:57.726Z,99724.72
2023-03-06T11:12:27.796Z,99730.34
2023-03-06T11:15:07.144Z,99730.41
2023-03-06T11:17:38.140Z,99725.75
2023-03-06T11:20:14.774Z,99719.22
2023-03-06T11:22:47.567Z,99719.72
2023-03-06T11:25:18.847Z,99718.28
2023-03-06T11:27:55.987Z,99716.25
2023-03-06T11:30:35.033Z,99712.72
2023-03-06T11:33:12.228Z,99716.94
2023-03-06T11:35:51.145Z,99709.66
2023-03-06T11:38:30.704Z,99709.44
2023-03-06T11:41:02.186Z,99697.47
2023-03-06T11:43:51.015Z,99700.28
2023-03-06T11:46:38.620Z,99685.94
2023-03-06T11:49:32.140Z,99684.66
2023-03-06T11:52:05.134Z,99683.97
2023-03-06T11:54:33.701Z,99683.72
2023-03-06T11:57:20.034Z,99688.91
2023-03-06T11:59:56.886Z,99686.06
2023-03-06T12:02:49.549Z,99682.84
2023-03-06T12:05:42.477Z,99683.56
2023-03-06T12:08:09.787Z,99671.75
2023-03-06T12:11:11.036Z,99661.75
2023-03-06T12:13:48.981Z,99665.91
2023-03-06T12:16:31.997Z,99665.69
2023-03-06T12:19:14.284Z,99665.03
2023-03-06T12:22:09.140Z,99662.00
2023-03-06T12:24:55.701Z,99656.19
2023-03-06T12:27:34.395Z,99647.97
2023-03-06T12:30:30.096Z,99643.00
2023-03-06T12:33:28.692Z,99631.22
2023-03-06T12:36:30.348Z,99633.03
2023-03-06T12:39:13.653Z,99632.97
2023-03-06T12:41:44.149Z,99629.59
2023-03-06T12:44:37.867Z,99626.50
2023-03-06T12:47:10.050Z,99620.28
2023-03-06T12:49:42.370Z,99632.03
2023-03-06T12:52:30.293Z,99617.75
2023-03-06T12:55:07.581Z,99624.75
2023-03-06T12:57:35.171Z,99623.94
2023-03-06T13:00:03.549Z,99623.38
2023-03-06T13:03:04.824Z,99619.66
2023-03-06T13:05:47.411Z,99609.69
2023-03-06T13:08:52.374Z,99607.13
2023-03-06T13:11:46.259Z,99605.75
2023-03-06T13:14:29.085Z,99602.63
2023-03-06T13:17:35.773Z,99592.28
2023-03-06T13:20:15.438Z,99598.06
2023-03-06T13:22:45.002Z,99588.22
2023-03-06T13:25:18.403Z,99582.59
2023-03-06T13:27:53.304Z,99587.72
2023-03-06T13:30:39.516Z,99590.09
2023-03-06T13:33:28.975Z,99604.56
2023-03-06T13:35:58.287Z,99591.97
2023-03-06T13:38:33.588Z,99590.00
2023-03-06T13:41:23.237Z,99591.69
2023-03-06T13:43:54.816Z,99586.72
2023-03-06T13:46:27.023Z,99586.47
2023-03-06T13:49:09.745Z,99582.78
2023-03-06T13:51:39.699Z,99578.13
2023-03-06T13:54:16.235Z,99577.91
2023-03-06T13:56:55.455Z,99577.81
2023-03-06T13:59:50.514Z,99576.13
2023-03-06T14:02:22.852Z,99575.00
2023-03-06T14:04:56.516Z,99562.75
2023-03-06T14:07:32.082Z,99566.88
2023-03-06T14:10:13.597Z,99572.00
2023-03-06T14:12:55.005Z,99560.91
2023-03-06T14:15:26.328Z,99568.78
2023-03-06T14:18:00.250Z,99563.91
2023-03-06T14:20:40.314Z,99556.09
2023-03-06T14:23:29.095Z,99563.50
2023-03-06T14:26:03.361Z,99559.34
2023-03-06T14:28:32.970Z,99558.78
2023-03-06T14:31:04.215Z,99557.25
2023-03-06T14:33:53.830Z,99561.91
2023-03-06T14:36:25.092Z,99559.78
2023-03-06T14:39:01.469Z,99552.38
2023-03-06T14:41:35.236Z,99567.44
2023-03-06T14:44:23.998Z,99562.66
2023-03-06T14:46:54.367Z,99554.69
2023-03-06T14:49:24.300Z,99564.00
2023-03-06T14:51:55.053Z,99561.50
2023-03-06T14:54:29.901Z,99559.16
2023-03-06T14:57:05.540Z,99554.34
2023-03-06T14:59:44.664Z,99555.88
2023-03-06T15:02:19.458Z,99550.22
2023-03-06T15:05:05.773Z,99546.84
2023-03-06T15:07:33.979Z,99545.25
2023-03-06T15:10:01.332Z,99545.63
2023-03-06T15:12:29.438Z,99541.47
2023-03-06T15:15:01.109Z,99541.84
2023-03-06T15:17:38.488Z,99541.88
2023-03-06T15:20:07.064Z,99540.50
2023-03-06T15:22:37.456Z,99546.09
2023-03-06T15:25:28.811Z,99537.72
2023-03-06T15:27:58.932Z,99540.81
2023-03-06T15:30:30.377Z,99541.72
2023-03-06T15:33:16.292Z,99541.72
2023-03-06T15:36:04.026Z,99547.69
2023-03-06T15:38:37.335Z,99547.28
2023-03-06T15:41:07.341Z,99545.50
2023-03-06T15:43:38.805Z,99537.44
2023-03-06T15:46:07.466Z,99546.69
2023-03-06T15:48:34.832Z,99544.91
2023-03-06T15:51:04.068Z,99545.88
2023-03-06T15:53:31.314Z,99543.25
2023-03-06T15:55:59.365Z,99540.75
2023-03-06T15:58:30.872Z,99541.75
2023-03-06T16:00:58.237Z,99536.84
2023-03-06T16:03:25.528Z,99534.03
2023-03-06T16:05:52.817Z,99533.16
2023-03-06T16:08:20.061Z,99526.53
2023-03-06T16:10:48.268Z,99531.38
2023-03-06T16:13:27.129Z,99530.28
2023-03-06T16:15:54.883Z,99533.06
2023-03-06T16:18:22.129Z,99522.25
2023-03-06T16:20:49.575Z,99528.22
2023-03-06T16:23:16.931Z,99530.38
2023-03-06T16:25:48.809Z,99521.59
2023-03-06T16:28:16.242Z,99531.19
2023-03-06T16:30:44.995Z,99522.81
2023-03-06T16:33:13.340Z,99526.66
2023-03-06T16:35:41.448Z,99522.09
2023-03-06T16:38:09.895Z,99516.41
2023-03-06T16:40:38.474Z,99523.84
2023-03-06T16:43:06.075Z,99529.84
2023-03-06T16:45:37.606Z,99532.72
2023-03-06T16:48:05.825Z,99529.19
2023-03-06T16:50:38.575Z,99526.44
2023-03-06T16:53:07.104Z,99527.16
2023-03-06T16:55:34.630Z,99515.88
2023-03-06T16:58:04.537Z,99521.53
2023-03-06T17:00:31.790Z,99528.59
2023-03-06T17:02:59.896Z,99535.09
2023-03-06T17:05:27.968Z,99528.88
2023-03-06T17:07:55.944Z,99535.81
2023-03-06T17:10:23.202Z,99522.56
2023-03-06T17:12:50.549Z,99520.78
2023-03-06T17:15:17.874Z,99522.09
2023-03-06T17:17:45.140Z,99515.94
2023-03-06T17:20:13.161Z,99520.03
2023-03-06T17:22:41.093Z,99517.13
2023-03-06T17:25:09.036Z,99521.53
2023-03-06T17:27:37.669Z,99513.56
2023-03-06T17:30:06.690Z,99507.94
2023-03-06T17:32:35.047Z,99509.31
2023-03-06T17:35:03.142Z,99502.47
2023-03-06T17:37:31.984Z,99504.19
2023-03-06T17:39:59.513Z,99505.56
2023-03-06T17:42:27.259Z,99504.63
2023-03-06T17:44:54.448Z,99511.47
2023-03-06T17:47:22.730Z,99505.03
2023-03-06T17:49:49.981Z,99512.88
2023-03-06T17:52:17.282Z,99519.72
2023-03-06T17:54:44.541Z,99528.91
2023-03-06T17:57:11.824Z,99526.16
2023-03-06T17:59:39.082Z,99527.19
2023-03-06T18:02:06.703Z,99521.63
2023-03-06T18:04:34.036Z,99521.03
2023-03-06T18:07:01.316Z,99522.31
2023-03-06T18:09:28.577Z,99518.91
2023-03-06T18:11:55.973Z,99523.75
2023-03-06T18:14:23.200Z,99521.22
2023-03-06T18:16:50.523Z,99520.63
2023-03-06T18:19:17.883Z,99526.72
2023-03-06T18:21:45.385Z,99553.41
2023-03-06T18:24:12.821Z,99570.97
2023-03-06T18:26:41.356Z,99599.63
2023-03-06T18:29:08.684Z,99596.72
2023-03-06T18:31:40.953Z,99607.94
2023-03-06T18:34:11.807Z,99592.78
2023-03-06T18:36:40.105Z,99585.41
2023-03-06T18:39:09.001Z,99571.81
2023-03-06T18:41:37.079Z,99575.53
2023-03-06T18:44:04.708Z,99572.44
2023-03-06T18:46:37.807Z,99594.56
2023-03-06T18:49:05.612Z,99595.09
2023-03-06T18:51:34.779Z,99604.13
2023-03-06T18:54:04.276Z,99592.47
2023-03-06T18:56:35.019Z,99598.38
2023-03-06T18:59:06.987Z,99598.59
2023-03-06T19:01:37.901Z,99599.66
2023-03-06T19:04:05.297Z,99592.47
2023-03-06T19:06:32.883Z,99586.19
2023-03-06T19:09:00.493Z,99589.69
2023-03-06T19:11:30.267Z,99584.81
2023-03-06T19:13:59.098Z,99593.72
2023-03-06T19:16:28.893Z,99586.81
2023-03-06T19:18:57.589Z,99577.22
2023-03-06T19:21:27.607Z,99578.31
2023-03-06T19:23:55.755Z,99576.69
2023-03-06T19:26:26.110Z,99562.28
2023-03-06T19:28:53.511Z,99553.13
2023-03-06T19:31:28.271Z,99556.94
2023-03-06T19:33:56.953Z,99543.06
2023-03-06T19:36:30.771Z,99544.63
2023-03-06T19:39:05.122Z,99542.97
2023-03-06T19:41:34.031Z,99538.91
2023-03-06T19:44:01.953Z,99535.81
2023-03-06T19:46:30.382Z,99535.03
2023-03-06T19:49:00.037Z,99537.88
2023-03-06T19:51:27.411Z,99536.28
2023-03-06T19:53:56.911Z,99543.53
2023-03-06T19:56:29.341Z,99546.88
2023-03-06T19:59:03.824Z,99532.69
2023-03-06T20:01:31.169Z,99531.94
2023-03-06T20:03:59.834Z,99529.59
2023-03-06T20:06:32.022Z,99525.03
2023-03-06T20:09:01.841Z,99532.72
2023-03-06T20:11:30.714Z,99532.72
2023-03-06T20:14:00.643Z,99535.50
2023-03-06T20:16:29.875Z,99538.13
2023-03-06T20:18:58.607Z,99532.88
2023-03-06T20:21:28.426Z,99533.34
2023-03-06T20:23:56.744Z,99525.84
2023-03-06T20:26:26.102Z,99527.34
2023-03-06T20:28:57.566Z,99533.66
2023-03-06T20:31:28.253Z,99545.03
2023-03-06T20:33:58.772Z,99535.31
2023-03-06T20:36:29.824Z,99541.16
2023-03-06T20:39:00.258Z,99530.81
2023-03-06T20:41:30.602Z,99530.06
2023-03-06T20:43:59.794Z,99525.34
2023-03-06T20:46:27.293Z,99527.75
2023-03-06T20:48:54.822Z,99530.25
2023-03-06T20:51:25.615Z,99518.09
2023-03-06T20:53:54.443Z,99521.81
2023-03-06T20:56:24.167Z,99516.06
2023-03-06T20:58:52.004Z,99509.88
2023-03-06T21:01:23.132Z,99505.91
2023-03-06T21:03:51.507Z,99517.63
2023-03-06T21:06:19.721Z,99508.06
2023-03-06T21:08:47.572Z,99501.22
2023-03-06T21:11:15.983Z,99506.22
2023-03-06T21:13:43.428Z,99490.44
2023-03-06T21:16:16.543Z,99493.66
2023-03-06T21:18:47.568Z,99495.25
2023-03-06T21:21:20.719Z,99495.28
2023-03-06T21:23:48.581Z,99492.38
2023-03-06T21:26:19.962Z,99494.72
2023-03-06T21:28:48.138Z,99497.41
2023-03-06T21:31:17.596Z,99497.88
2023-03-06T21:33:45.340Z,99496.22
2023-03-06T21:36:13.494Z,99490.66
2023-03-06T21:38:40.804Z,99487.47
2023-03-06T21:41:12.967Z,99490.72
2023-03-06T21:43:43.581Z,99480.16
2023-03-06T21:46:11.674Z,99478.22
2023-03-06T21:48:39.303Z,99471.50
2023-03-06T21:51:12.388Z,99465.59
2023-03-06T21:53:42.153Z,99465.78
2023-03-06T21:56:11.377Z,99470.59
2023-03-06T21:58:41.139Z,99469.03
2023-03-06T22:01:10.893Z,99462.50
2023-03-06T22:03:38.475Z,99449.41
2023-03-06T22:06:20.984Z,99451.66
2023-03-06T22:08:48.321Z,99459.09
2023-03-06T22:11:17.804Z,99450.06
2023-03-06T22:13:46.022Z,99448.19
2023-03-06T22:16:14.315Z,99450.63
2023-03-06T22:18:46.397Z,99451.06
2023-03-06T22:21:16.124Z,99446.81
2023-03-06T22:23:45.662Z,99449.59
2023-03-06T22:26:13.742Z,99444.81
2023-03-06T22:28:42.142Z,99439.50
2023-03-06T22:31:18.490Z,99442.16
2023-03-06T22:33:46.545Z,99441.59
2023-03-06T22:36:15.548Z,99442.47
2023-03-06T22:38:44.865Z,99454.88
2023-03-06T22:41:14.539Z,99447.94
2023-03-06T22:43:41.773Z,99447.94
2023-03-06T22:46:11.909Z,99448.81
2023-03-06T22:48:39.821Z,99447.94
2023-03-06T22:51:10.110Z,99451.66
2023-03-06T22:53:38.515Z,99453.75
2023-03-06T22:56:10.299Z,99454.88
2023-03-06T22:58:38.019Z,99457.78
2023-03-06T23:01:11.054Z,99444.00
2023-03-06T23:03:40.582Z,99438.97
2023-03-06T23:06:20.602Z,99444.88
2023-03-06T23:08:53.965Z,99447.69
2023-03-06T23:11:21.774Z,99443.69
2023-03-06T23:13:49.891Z,99449.00
2023-03-06T23:16:18.163Z,99431.50
2023-03-06T23:18:45.551Z,99438.91
2023-03-06T23:21:15.115Z,99435.25
2023-03-06T23:23:42.838Z,99437.53
2023-03-06T23:26:13.111Z,99425.25
2023-03-06T23:28:41.291Z,99425.59
2023-03-06T23:31:10.211Z,99426.88
2023-03-06T23:33:38.009Z,99421.06
2023-03-06T23:36:08.061Z,99421.03
2023-03-06T23:38:35.933Z,99417.09
2023-03-06T23:41:08.649Z,99417.66
2023-03-06T23:43:36.197Z,99420.06
2023-03-06T23:46:04.720Z,99426.44
2023-03-06T23:48:31.932Z,99433.09
2023-03-06T23:50:59.781Z,99424.34
2023-03-06T23:53:27.066Z,99429.09
2023-03-06T23:55:54.389Z,99431.78
2023-03-06T23:58:21.649Z,99426.25
